createdAt,value
2023-04-15T00:02:18.357Z,6.20
2023-04-15T00:04:46.842Z,6.22
2023-04-15T00:07:14.749Z,6.19
2023-04-15T00:09:42.977Z,6.22
2023-04-15T00:12:10.745Z,6.29
2023-04-15T00:14:38.685Z,6.31
2023-04-15T00:17:06.385Z,6.25
2023-04-15T00:19:35.582Z,6.20
2023-04-15T00:22:03.152Z,6.22
2023-04-15T00:24:31.350Z,6.19
2023-04-15T00:26:59.883Z,6.20
2023-04-15T00:29:27.658Z,6.13
2023-04-15T00:31:55.260Z,6.13
2023-04-15T00:34:23.233Z,6.20
2023-04-15T00:36:52.490Z,6.18
2023-04-15T00:39:20.656Z,6.19
2023-04-15T00:41:49.064Z,6.09
2023-04-15T00:44:18.797Z,6.14
2023-04-15T00:46:47.818Z,6.07
2023-04-15T00:49:15.446Z,6.13
2023-04-15T00:51:43.042Z,6.28
2023-04-15T00:54:12.208Z,6.38
2023-04-15T00:56:42.137Z,6.41
2023-04-15T00:59:10.154Z,6.31
2023-04-15T01:01:38.542Z,6.34
2023-04-15T01:04:06.945Z,6.34
2023-04-15T01:06:35.073Z,6.33
2023-04-15T01:09:03.342Z,6.39
2023-04-15T01:11:34.240Z,6.34
2023-04-15T01:14:02.424Z,6.22
2023-04-15T01:16:30.269Z,6.11
2023-04-15T01:18:58.384Z,5.96
2023-04-15T01:21:26.995Z,6.06
2023-04-15T01:23:57.072Z,5.98
2023-04-15T01:26:27.521Z,5.90
2023-04-15T01:28:56.311Z,5.94
2023-04-15T01:31:25.034Z,5.87
2023-04-15T01:33:52.983Z,5.93
2023-04-15T01:36:21.022Z,5.90
2023-04-15T01:38:48.833Z,5.82
2023-04-15T01:41:16.416Z,5.74
2023-04-15T01:43:46.653Z,5.61
2023-04-15T01:46:14.432Z,5.59
2023-04-15T01:48:42.140Z,5.58
2023-04-15T01:51:09.732Z,5.47
2023-04-15T01:53:37.337Z,5.37
2023-04-15T01:56:05.602Z,5.37
2023-04-15T01:58:33.237Z,5.51
2023-04-15T02:01:02.985Z,5.52
2023-04-15T02:03:32.966Z,5.46
2023-04-15T02:06:00.889Z,5.43
2023-04-15T02:08:29.707Z,5.43
2023-04-15T02:10:57.417Z,5.33
2023-04-15T02:13:26.165Z,5.36
2023-04-15T02:15:56.197Z,5.45
2023-04-15T02:18:25.130Z,5.46
2023-04-15T02:20:53.244Z,5.56
2023-04-15T02:23:20.872Z,5.56
2023-04-15T02:25:53.296Z,5.54
2023-04-15T02:28:21.800Z,5.60
2023-04-15T02:30:50.914Z,5.75
2023-04-15T02:33:18.630Z,5.82
2023-04-15T02:35:47.542Z,5.87
2023-04-15T02:38:17.954Z,5.86
2023-04-15T02:40:46.127Z,5.98
2023-04-15T02:43:13.887Z,6.03
2023-04-15T02:45:43.438Z,6.06
2023-04-15T02:48:11.522Z,6.10
2023-04-15T02:50:40.719Z,6.05
2023-04-15T02:53:11.828Z,6.00
2023-04-15T02:55:39.731Z,6.08
2023-04-15T02:58:07.708Z,6.02
2023-04-15T03:00:35.577Z,5.94
2023-04-15T03:03:05.307Z,5.91
2023-04-15T03:05:33.497Z,5.80
2023-04-15T03:08:04.362Z,5.64
2023-04-15T03:10:33.395Z,5.48
2023-04-15T03:13:02.700Z,5.53
2023-04-15T03:15:30.724Z,5.58
2023-04-15T03:17:58.604Z,5.49
2023-04-15T03:20:26.329Z,5.29
2023-04-15T03:22:54.518Z,5.22
2023-04-15T03:25:24.227Z,5.24
2023-04-15T03:27:53.530Z,5.17
2023-04-15T03:30:21.469Z,5.23
2023-04-15T03:32:49.289Z,5.22
2023-04-15T03:35:17.122Z,5.12
2023-04-15T03:37:44.949Z,5.02
2023-04-15T03:40:13.467Z,5.08
2023-04-15T03:42:41.176Z,4.98
2023-04-15T03:45:11.078Z,4.95
2023-04-15T03:47:38.860Z,4.97
2023-04-15T03:50:07.495Z,4.85
2023-04-15T03:52:35.534Z,5.03
2023-04-15T03:55:03.176Z,5.04
2023-04-15T03:57:31.307Z,4.97
2023-04-15T03:59:58.882Z,5.04
2023-04-15T04:02:28.433Z,5.00
2023-04-15T04:04:56.174Z,5.03
2023-04-15T04:07:25.460Z,5.04
2023-04-15T04:09:53.076Z,4.92
2023-04-15T04:12:21.040Z,4.96
2023-04-15T04:14:48.609Z,4.82
2023-04-15T04:17:16.443Z,4.74
2023-04-15T04:19:45.348Z,4.82
2023-04-15T04:22:13.057Z,4.81
2023-04-15T04:24:40.683Z,4.91
2023-04-15T04:27:08.512Z,5.00
2023-04-15T04:29:36.064Z,4.88
2023-04-15T04:32:04.015Z,4.93
2023-04-15T04:34:32.479Z,4.84
2023-04-15T04:37:01.616Z,4.87
2023-04-15T04:39:29.180Z,4.89
2023-04-15T04:41:57.505Z,4.89
2023-04-15T04:44:25.181Z,4.98
2023-04-15T04:46:54.084Z,4.89
2023-04-15T04:49:21.666Z,4.75
2023-04-15T04:51:49.423Z,4.77
2023-04-15T04:54:18.643Z,4.75
2023-04-15T04:56:46.309Z,4.67
2023-04-15T04:59:14.165Z,4.63
2023-04-15T05:01:41.931Z,4.62
2023-04-15T05:04:09.656Z,4.67
2023-04-15T05:06:37.465Z,4.65
2023-04-15T05:09:05.356Z,4.69
2023-04-15T05:11:34.429Z,4.59
2023-04-15T05:14:02.479Z,4.72
2023-04-15T05:16:30.102Z,4.64
2023-04-15T05:18:57.987Z,4.67
2023-04-15T05:21:25.900Z,4.77
2023-04-15T05:23:53.634Z,4.81
2023-04-15T05:26:21.699Z,4.83
2023-04-15T05:28:50.913Z,4.85
2023-04-15T05:31:18.537Z,4.97
2023-04-15T05:33:46.450Z,5.10
2023-04-15T05:36:14.007Z,5.15
2023-04-15T05:38:42.156Z,5.22
2023-04-15T05:41:09.977Z,5.30
2023-04-15T05:43:37.777Z,5.43
2023-04-15T05:46:06.779Z,5.51
2023-04-15T05:48:34.601Z,5.71
2023-04-15T05:51:02.344Z,5.82
2023-04-15T05:53:30.039Z,6.01
2023-04-15T05:55:57.914Z,6.13
2023-04-15T05:58:25.826Z,6.14
2023-04-15T06:00:53.517Z,6.29
2023-04-15T06:03:23.135Z,6.29
2023-04-15T06:05:50.844Z,6.33
2023-04-15T06:08:19.031Z,6.35
2023-04-15T06:10:46.699Z,6.59
2023-04-15T06:13:14.399Z,6.64
2023-04-15T06:15:42.212Z,6.76
2023-04-15T06:18:10.090Z,6.74
2023-04-15T06:20:39.466Z,6.93
2023-04-15T06:23:07.092Z,7.12
2023-04-15T06:25:34.657Z,6.95
2023-04-15T06:28:02.382Z,6.97
2023-04-15T06:30:30.248Z,6.76
2023-04-15T06:32:58.041Z,6.75
2023-04-15T06:35:26.093Z,6.75
2023-04-15T06:37:54.972Z,6.82
2023-04-15T06:40:22.675Z,6.87
2023-04-15T06:42:50.387Z,6.97
2023-04-15T06:45:18.222Z,6.87
2023-04-15T06:47:45.817Z,7.09
2023-04-15T06:50:13.621Z,6.79
2023-04-15T06:52:41.488Z,7.03
2023-04-15T06:55:11.338Z,7.15
2023-04-15T06:57:39.005Z,7.27
2023-04-15T07:00:07.738Z,7.35
2023-04-15T07:02:35.564Z,7.42
2023-04-15T07:05:03.392Z,7.68
2023-04-15T07:07:31.122Z,7.63
2023-04-15T07:09:58.803Z,7.67
2023-04-15T07:12:27.780Z,7.85
2023-04-15T07:14:55.352Z,7.86
2023-04-15T07:17:23.089Z,7.80
2023-04-15T07:19:50.723Z,7.76
2023-04-15T07:22:18.291Z,7.86
2023-04-15T07:24:46.001Z,7.96
2023-04-15T07:27:13.587Z,7.86
2023-04-15T07:29:42.842Z,7.83
2023-04-15T07:32:11.287Z,7.99
2023-04-15T07:34:39.090Z,7.97
2023-04-15T07:37:06.635Z,8.22
2023-04-15T07:39:34.230Z,7.92
2023-04-15T07:42:02.056Z,8.22
2023-04-15T07:44:29.772Z,8.48
2023-04-15T07:46:58.759Z,8.51
2023-04-15T07:49:26.623Z,8.53
2023-04-15T07:51:54.829Z,8.46
2023-04-15T07:54:22.552Z,8.66
2023-04-15T07:56:50.482Z,8.66
2023-04-15T07:59:19.044Z,8.81
2023-04-15T08:01:46.653Z,8.74
2023-04-15T08:04:15.981Z,8.77
2023-04-15T08:06:44.005Z,9.14
2023-04-15T08:09:11.838Z,9.08
2023-04-15T08:11:39.442Z,9.24
2023-04-15T08:14:07.063Z,9.17
2023-04-15T08:16:35.268Z,9.16
2023-04-15T08:19:03.907Z,9.70
2023-04-15T08:21:33.341Z,9.76
2023-04-15T08:24:01.700Z,10.10
2023-04-15T08:26:29.697Z,9.73
2023-04-15T08:28:57.587Z,9.65
2023-04-15T08:31:29.763Z,10.03
2023-04-15T08:33:58.265Z,10.30
2023-04-15T08:36:27.410Z,10.21
2023-04-15T08:38:56.638Z,10.16
2023-04-15T08:41:27.326Z,10.25
2023-04-15T08:43:58.710Z,9.87
2023-04-15T08:46:26.992Z,10.13
2023-04-15T08:48:58.162Z,10.25
2023-04-15T08:51:27.775Z,10.30
2023-04-15T08:53:57.007Z,10.70
2023-04-15T08:56:27.093Z,10.94
2023-04-15T08:58:55.303Z,10.80
2023-04-15T09:01:23.955Z,10.97
2023-04-15T09:03:52.014Z,10.99
2023-04-15T09:06:20.184Z,11.05
2023-04-15T09:08:47.767Z,10.82
2023-04-15T09:11:20.013Z,10.97
2023-04-15T09:13:48.200Z,11.38
2023-04-15T09:16:16.089Z,11.62
2023-04-15T09:18:44.236Z,11.39
2023-04-15T09:21:13.426Z,10.76
2023-04-15T09:23:43.204Z,11.42
2023-04-15T09:26:10.902Z,11.81
2023-04-15T09:28:43.956Z,11.93
2023-04-15T09:31:12.028Z,12.07
2023-04-15T09:33:57.094Z,11.76
2023-04-15T09:36:25.229Z,11.79
2023-04-15T09:38:57.067Z,11.30
2023-04-15T09:41:25.468Z,12.05
2023-04-15T09:43:54.532Z,12.24
2023-04-15T09:46:22.305Z,12.57
2023-04-15T09:49:08.696Z,12.36
2023-04-15T09:51:37.402Z,12.09
2023-04-15T09:54:05.537Z,11.89
2023-04-15T09:56:36.297Z,11.95
2023-04-15T09:59:06.450Z,11.50
2023-04-15T10:01:34.501Z,11.92
2023-04-15T10:04:04.671Z,11.90
2023-04-15T10:06:32.981Z,11.78
2023-04-15T10:09:01.652Z,11.73
2023-04-15T10:11:31.779Z,11.14
2023-04-15T10:14:00.084Z,11.17
2023-04-15T10:16:29.950Z,12.02
2023-04-15T10:18:59.046Z,12.46
2023-04-15T10:21:26.694Z,12.84
2023-04-15T10:23:54.630Z,12.60
2023-04-15T10:26:22.871Z,12.92
2023-04-15T10:28:50.682Z,13.00
2023-04-15T10:31:20.200Z,13.06
2023-04-15T10:33:50.223Z,13.60
2023-04-15T10:36:18.178Z,14.24
2023-04-15T10:38:46.773Z,14.52
2023-04-15T10:41:21.618Z,14.37
2023-04-15T10:43:51.528Z,14.33
2023-04-15T10:46:24.598Z,14.78
2023-04-15T10:48:54.966Z,15.06
2023-04-15T10:51:31.068Z,15.64
2023-04-15T10:53:59.894Z,15.97
2023-04-15T10:56:29.626Z,15.93
2023-04-15T10:58:59.505Z,15.87
2023-04-15T11:01:51.546Z,13.88
2023-04-15T11:07:43.412Z,13.59
2023-04-15T11:10:54.095Z,12.82
2023-04-15T11:13:25.061Z,12.37
2023-04-15T11:15:56.683Z,12.10
2023-04-15T11:18:28.106Z,12.16
2023-04-15T11:20:57.492Z,12.14
2023-04-15T11:23:35.133Z,12.04
2023-04-15T11:26:05.582Z,11.65
2023-04-15T11:28:34.272Z,11.64
2023-04-15T11:31:08.464Z,11.26
2023-04-15T11:33:36.246Z,10.62
2023-04-15T11:36:04.506Z,10.30
2023-04-15T11:38:35.520Z,10.57
2023-04-15T11:41:03.210Z,10.50
2023-04-15T11:43:35.322Z,10.92
2023-04-15T11:46:04.227Z,10.77
2023-04-15T11:48:33.608Z,11.21
2023-04-15T11:51:02.735Z,11.40
2023-04-15T11:53:44.510Z,11.66
2023-04-15T11:56:18.636Z,11.84
2023-04-15T11:58:47.201Z,11.92
2023-04-15T12:01:15.173Z,11.94
2023-04-15T12:03:44.606Z,12.03
2023-04-15T12:06:19.931Z,11.97
2023-04-15T12:09:05.048Z,11.94
2023-04-15T12:11:44.278Z,12.15
2023-04-15T12:14:22.654Z,12.26
2023-04-15T12:16:52.488Z,12.39
2023-04-15T12:19:25.884Z,12.40
2023-04-15T12:22:00.241Z,12.48
2023-04-15T12:24:32.993Z,12.69
2023-04-15T12:27:03.934Z,13.02
2023-04-15T12:29:32.603Z,13.58
2023-04-15T12:32:06.764Z,13.47
2023-04-15T12:34:36.731Z,13.32
2023-04-15T12:37:06.083Z,12.89
2023-04-15T12:39:38.023Z,13.26
2023-04-15T12:42:06.223Z,14.19
2023-04-15T12:44:34.542Z,14.47
2023-04-15T12:47:02.300Z,14.80
2023-04-15T12:49:30.127Z,15.32
2023-04-15T12:52:00.064Z,15.36
2023-04-15T12:54:28.005Z,14.92
2023-04-15T12:56:57.941Z,14.07
2023-04-15T12:59:25.844Z,14.61
2023-04-15T13:01:54.471Z,14.79
2023-04-15T13:04:23.005Z,14.93
2023-04-15T13:06:50.829Z,14.78
2023-04-15T13:09:18.532Z,14.82
2023-04-15T13:11:46.292Z,14.84
2023-04-15T13:14:15.776Z,14.38
2023-04-15T13:16:43.382Z,14.13
2023-04-15T13:19:11.178Z,14.06
2023-04-15T13:21:38.812Z,14.08
2023-04-15T13:24:07.172Z,13.96
2023-04-15T13:26:35.146Z,12.48
2023-04-15T13:29:02.873Z,12.69
2023-04-15T13:31:31.963Z,13.04
2023-04-15T13:33:59.732Z,13.11
2023-04-15T13:36:27.469Z,13.01
2023-04-15T13:38:55.673Z,11.74
2023-04-15T13:41:23.255Z,11.46
2023-04-15T13:43:51.170Z,11.42
2023-04-15T13:46:18.896Z,11.24
2023-04-15T13:48:48.598Z,11.08
2023-04-15T13:51:16.171Z,11.48
2023-04-15T13:53:43.876Z,11.28
2023-04-15T13:56:11.499Z,11.38
2023-04-15T13:58:39.785Z,11.10
2023-04-15T14:01:07.730Z,11.41
2023-04-15T14:03:36.634Z,11.39
2023-04-15T14:06:06.770Z,11.11
2023-04-15T14:08:34.744Z,10.76
2023-04-15T14:11:02.359Z,10.82
2023-04-15T14:13:30.119Z,10.70
2023-04-15T14:15:58.378Z,10.70
2023-04-15T14:18:26.607Z,11.07
2023-04-15T14:20:54.292Z,10.62
2023-04-15T14:23:23.423Z,10.76
2023-04-15T14:25:51.597Z,10.32
2023-04-15T14:28:19.326Z,10.47
2023-04-15T14:30:47.375Z,10.75
2023-04-15T14:33:15.247Z,10.76
2023-04-15T14:35:42.914Z,9.95
2023-04-15T14:38:11.631Z,10.12
2023-04-15T14:40:42.217Z,10.53
2023-04-15T14:43:10.189Z,10.77
2023-04-15T14:45:40.687Z,10.76
2023-04-15T14:48:12.650Z,10.89
2023-04-15T14:50:40.893Z,11.10
2023-04-15T14:53:08.712Z,11.30
2023-04-15T14:55:36.285Z,11.40
2023-04-15T14:58:06.109Z,11.53
2023-04-15T15:00:34.004Z,11.18
2023-04-15T15:03:01.884Z,11.47
2023-04-15T15:05:29.747Z,11.36
2023-04-15T15:07:57.559Z,11.22
2023-04-15T15:10:32.872Z,10.76
2023-04-15T15:13:14.799Z,10.59
2023-04-15T15:15:42.674Z,10.47
2023-04-15T15:18:11.263Z,9.49
2023-04-15T15:20:39.164Z,9.55
2023-04-15T15:23:06.772Z,9.76
2023-04-15T15:25:34.404Z,9.41
2023-04-15T15:28:01.979Z,8.73
2023-04-15T15:30:31.479Z,8.32
2023-04-15T15:32:59.188Z,8.15
2023-04-15T15:35:27.028Z,8.20
2023-04-15T15:37:54.942Z,8.14
2023-04-15T15:40:22.854Z,8.03
2023-04-15T15:42:50.956Z,8.03
2023-04-15T15:45:19.040Z,7.80
2023-04-15T15:47:48.812Z,7.96
2023-04-15T15:50:16.604Z,7.95
2023-04-15T15:52:44.190Z,8.03
2023-04-15T15:55:11.946Z,8.03
2023-04-15T15:57:39.500Z,8.54
2023-04-15T16:00:12.033Z,8.38
2023-04-15T16:03:05.165Z,8.25
2023-04-15T16:05:29.753Z,8.49
2023-04-15T16:07:57.379Z,8.33
2023-04-15T16:10:25.434Z,8.40
2023-04-15T16:12:53.064Z,8.17
2023-04-15T16:15:21.241Z,8.12
2023-04-15T16:17:48.867Z,8.12
2023-04-15T16:20:17.184Z,8.33
2023-04-15T16:22:46.320Z,8.28
2023-04-15T16:25:14.068Z,8.28
2023-04-15T16:27:57.122Z,8.18
2023-04-15T16:30:27.173Z,7.78
2023-04-15T16:32:54.866Z,7.65
2023-04-15T16:35:22.516Z,7.56
2023-04-15T16:37:51.458Z,7.60
2023-04-15T16:40:19.322Z,7.59
2023-04-15T16:42:46.922Z,7.56
2023-04-15T16:45:14.757Z,7.83
2023-04-15T16:47:42.553Z,7.81
2023-04-15T16:50:11.409Z,7.88
2023-04-15T16:52:39.040Z,7.90
2023-04-15T16:55:08.593Z,7.85
2023-04-15T16:57:54.103Z,7.80
2023-04-15T17:00:23.986Z,7.91
2023-04-15T17:02:51.697Z,7.83
2023-04-15T17:05:19.779Z,7.95
2023-04-15T17:07:47.335Z,7.81
2023-04-15T17:10:16.427Z,7.81
2023-04-15T17:12:44.068Z,7.85
2023-04-15T17:15:11.699Z,7.86
2023-04-15T17:17:39.345Z,7.70
2023-04-15T17:20:08.005Z,7.70
2023-04-15T17:22:35.700Z,7.81
2023-04-15T17:25:04.557Z,7.73
2023-04-15T17:27:33.581Z,7.43
2023-04-15T17:30:01.318Z,7.24
2023-04-15T17:32:31.931Z,7.31
2023-04-15T17:34:59.693Z,7.24
2023-04-15T17:37:27.672Z,7.35
2023-04-15T17:39:55.350Z,7.30
2023-04-15T17:42:23.291Z,7.20
2023-04-15T17:44:52.180Z,7.11
2023-04-15T17:47:20.420Z,7.05
2023-04-15T17:49:48.106Z,7.09
2023-04-15T17:52:15.847Z,7.31
2023-04-15T17:54:43.466Z,7.16
2023-04-15T17:57:11.368Z,7.25
2023-04-15T17:59:43.743Z,7.20
2023-04-15T18:02:12.952Z,7.06
2023-04-15T18:04:40.671Z,7.27
2023-04-15T18:07:08.726Z,7.15
2023-04-15T18:09:36.632Z,6.97
2023-04-15T18:12:04.605Z,7.24
2023-04-15T18:14:34.939Z,7.21
2023-04-15T18:17:03.768Z,7.04
2023-04-15T18:19:32.868Z,6.91
2023-04-15T18:22:00.892Z,7.07
2023-04-15T18:24:28.694Z,7.31
2023-04-15T18:26:56.679Z,7.31
2023-04-15T18:29:25.216Z,7.20
2023-04-15T18:31:53.661Z,7.44
2023-04-15T18:34:21.322Z,7.23
2023-04-15T18:36:50.427Z,7.19
2023-04-15T18:39:18.083Z,7.25
2023-04-15T18:41:45.892Z,7.17
2023-04-15T18:44:13.494Z,6.83
2023-04-15T18:46:41.320Z,7.13
2023-04-15T18:49:08.907Z,7.07
2023-04-15T18:51:37.061Z,6.97
2023-04-15T18:54:06.156Z,7.16
2023-04-15T18:56:33.880Z,7.03
2023-04-15T18:59:18.457Z,6.94
2023-04-15T19:01:49.803Z,6.94
2023-04-15T19:04:17.421Z,7.09
2023-04-15T19:06:45.042Z,7.11
2023-04-15T19:09:13.982Z,7.16
2023-04-15T19:11:41.693Z,7.08
2023-04-15T19:14:09.314Z,7.00
2023-04-15T19:16:37.218Z,6.92
2023-04-15T19:19:06.479Z,6.93
2023-04-15T19:21:34.558Z,6.65
2023-04-15T19:24:02.915Z,6.70
2023-04-15T19:26:31.925Z,6.95
2023-04-15T19:28:59.746Z,7.02
2023-04-15T19:31:27.348Z,6.89
2023-04-15T19:33:55.057Z,6.91
2023-04-15T19:36:22.659Z,6.86
2023-04-15T19:38:50.408Z,6.72
2023-04-15T19:41:18.068Z,6.77
2023-04-15T19:43:47.146Z,6.47
2023-04-15T19:46:15.075Z,6.60
2023-04-15T19:48:42.977Z,6.61
2023-04-15T19:51:10.751Z,6.63
2023-04-15T19:53:38.397Z,6.62
2023-04-15T19:56:06.427Z,6.53
2023-04-15T19:58:34.298Z,6.52
2023-04-15T20:01:03.592Z,6.33
2023-04-15T20:03:32.076Z,6.43
2023-04-15T20:05:59.876Z,6.51
2023-04-15T20:08:27.865Z,6.34
2023-04-15T20:10:55.610Z,6.12
2023-04-15T20:13:23.468Z,6.12
2023-04-15T20:15:51.183Z,6.17
2023-04-15T20:18:20.168Z,6.09
2023-04-15T20:20:48.190Z,6.23
2023-04-15T20:23:16.112Z,5.98
2023-04-15T20:25:43.740Z,5.94
2023-04-15T20:28:11.708Z,6.12
2023-04-15T20:30:39.735Z,6.02
2023-04-15T20:33:08.118Z,6.07
2023-04-15T20:35:37.388Z,5.98
2023-04-15T20:38:05.792Z,6.02
2023-04-15T20:40:33.744Z,5.98
2023-04-15T20:43:01.491Z,6.06
2023-04-15T20:45:29.278Z,6.08
2023-04-15T20:47:57.077Z,6.27
2023-04-15T20:50:24.662Z,6.27
2023-04-15T20:52:53.848Z,6.23
2023-04-15T20:55:21.523Z,6.35
2023-04-15T20:57:49.391Z,6.40
2023-04-15T21:00:17.199Z,6.24
2023-04-15T21:02:45.128Z,6.24
2023-04-15T21:05:13.038Z,6.20
2023-04-15T21:07:41.231Z,6.01
2023-04-15T21:10:10.874Z,6.46
2023-04-15T21:12:40.758Z,6.49
2023-04-15T21:15:09.420Z,6.59
2023-04-15T21:17:37.129Z,6.56
2023-04-15T21:20:05.307Z,6.76
2023-04-15T21:22:32.916Z,6.68
2023-04-15T21:25:00.601Z,6.80
2023-04-15T21:27:29.524Z,6.71
2023-04-15T21:29:57.369Z,6.79
2023-04-15T21:32:25.007Z,6.69
2023-04-15T21:34:52.721Z,6.84
2023-04-15T21:37:20.304Z,6.71
2023-04-15T21:39:48.129Z,6.64
2023-04-15T21:42:15.746Z,6.71
2023-04-15T21:44:44.836Z,6.66
2023-04-15T21:47:12.615Z,6.63
2023-04-15T21:49:40.711Z,6.72
2023-04-15T21:52:08.302Z,6.68
2023-04-15T21:54:37.955Z,6.72
2023-04-15T21:57:05.560Z,6.57
2023-04-15T21:59:33.361Z,6.53
2023-04-15T22:02:02.361Z,6.48
2023-04-15T22:04:30.295Z,6.38
2023-04-15T22:07:01.571Z,6.37
2023-04-15T22:09:29.263Z,6.58
2023-04-15T22:11:57.562Z,6.65
2023-04-15T22:14:25.259Z,6.56
2023-04-15T22:16:53.050Z,6.54
2023-04-15T22:19:22.183Z,6.69
2023-04-15T22:21:50.968Z,6.79
2023-04-15T22:24:39.017Z,6.66
2023-04-15T22:27:06.718Z,6.77
2023-04-15T22:29:34.903Z,6.86
2023-04-15T22:32:02.495Z,6.67
2023-04-15T22:34:31.744Z,6.75
2023-04-15T22:36:59.343Z,6.74
2023-04-15T22:39:27.260Z,6.81
2023-04-15T22:41:54.822Z,6.80
2023-04-15T22:44:22.656Z,6.68
2023-04-15T22:46:51.712Z,6.73
2023-04-15T22:49:19.594Z,6.76
2023-04-15T22:51:48.815Z,6.76
2023-04-15T22:54:16.446Z,6.78
2023-04-15T22:56:44.291Z,6.53
2023-04-15T22:59:11.887Z,6.57
2023-04-15T23:01:39.727Z,6.63
2023-04-15T23:04:09.781Z,6.73
2023-04-15T23:06:56.169Z,6.60
2023-04-15T23:09:23.850Z,6.76
2023-04-15T23:11:51.749Z,6.69
2023-04-15T23:14:19.322Z,6.60
2023-04-15T23:16:46.905Z,6.50
2023-04-15T23:19:14.559Z,6.34
2023-04-15T23:21:42.213Z,6.18
2023-04-15T23:24:11.145Z,5.97
2023-04-15T23:26:38.981Z,5.91
2023-04-15T23:29:07.316Z,6.04
2023-04-15T23:31:35.173Z,5.85
2023-04-15T23:34:03.933Z,5.93
2023-04-15T23:36:32.025Z,6.02
2023-04-15T23:38:59.659Z,6.01
2023-04-15T23:41:29.109Z,6.02
2023-04-15T23:43:56.680Z,6.16
2023-04-15T23:46:24.407Z,6.29
2023-04-15T23:48:51.996Z,6.31
2023-04-15T23:51:19.692Z,6.16
2023-04-15T23:53:47.280Z,6.11
2023-04-15T23:56:15.079Z,5.95
2023-04-15T23:58:44.013Z,5.85
